Valley Peak, Santa Cruz Island Reserve, California Weather observations

Data are for 10 minute period ending at time listed.
 Day   Time   Solar   Ave.   Ave.  Ave.  Vector  Max.   Baro.   Total    
  of    of     Rad.   Air    Rel.  Wind   Wind   Wind  Press.  Precip.   
Year   Day            Temp.  Hum.  Speed  Dir.   Gust                    
2015   (PST)  Kw/m2    F      %     mph   deg.    mph    mb.     in.     
-------------------------------------------------------------------------
 186   12:00   0.56   65.3    75    4.0    43     9.5   966.4    0.00 
 186   12:10   0.49   66.1    73    2.8    54     6.1   966.4    0.00 
 186   12:20   0.50   67.3    71    3.2    60     7.7   966.2    0.00 
 186   12:30   0.51   67.2    71    2.9    54     6.4   966.1    0.00 
 186   12:40   0.58   67.8    69    3.2    60     6.6   966.0    0.00 
 186   12:50   0.60   68.4    68    3.7    40     8.8   965.9    0.00 
 186   13:00   0.63   67.9    69    4.9    49     8.8   965.8    0.00 
 186   13:10   0.52   67.9    69    5.5    50    10.2   965.7    0.00 
 186   13:20   0.81   67.4    70    6.3    42    10.2   965.7    0.00 
 186   13:30   0.87   69.1    67    5.2    53     8.8   965.7    0.00 
 186   13:40   0.74   70.5    64    3.7    62     7.3   965.7    0.00 
 186   13:50   0.71   71.6    62    4.3    71     8.0   965.7    0.00 
 186   14:00   0.82   71.0    63    3.4    76     8.6   965.6    0.00 
 186   14:10   0.78   70.9    63    4.1    70     7.5   965.6    0.00 
 186   14:20   0.74   70.1    64    3.7    54     7.7   965.6    0.00 
 186   14:30   0.82   70.9    62    3.2    56     6.9   965.6    0.00 
 186   14:40   0.80   70.2    64    3.1    50     7.3   965.5    0.00 
 186   14:50   0.76   70.4    63    2.4    41     8.0   965.4    0.00 
 186   15:00   0.69   70.0    63    3.1    52     8.3   965.3    0.00 
 186   15:10   0.71   68.6    66    7.2    41    10.9   965.3    0.00 
 186   15:20   0.66   67.3    68    9.5    38    15.8   965.1    0.00 
 186   15:30   0.66   65.0    73   11.4    38    16.7   964.9    0.00 
 186   15:40   0.63   64.6    74   11.7    39    15.7   964.7    0.00 
 186   15:50   0.59   64.9    73   10.6    38    15.6   964.6    0.00 
 186   16:00   0.56   64.9    73   10.3    38    17.5   964.6    0.00 
 186   16:10   0.53   64.2    75   10.3    33    14.5   964.6    0.00 
 186   16:20   0.49   63.6    76   11.6    31    15.8   964.5    0.00 
 186   16:30   0.46   63.0    77   12.3    31    16.0   964.4    0.00 
 186   16:40   0.43   63.5    76   12.2    36    15.7   964.4    0.00 
 186   16:50   0.39   63.4    76   10.8    34    14.2   964.3    0.00 
 186   17:00   0.36   63.6    75    8.9    28    12.2   964.3    0.00 
 186   17:10   0.33   64.4    73    6.3    29     8.6   964.4    0.00 
 186   17:20   0.29   66.1    70    5.9    34     9.0   964.4    0.00 
 186   17:30   0.26   66.6    68    5.4    31     7.5   964.4    0.00 
 186   17:40   0.23   68.5    65    3.6    38     6.6   964.4    0.00 
 186   17:50   0.19   69.8    62    3.3    46     5.9   964.5    0.00 
 186   18:00   0.16   68.6    64    4.6    39     7.5   964.6    0.00 
 186   18:10   0.13   68.8    63    4.3    41     7.7   964.6    0.00 
 186   18:20   0.10   66.0    69    4.2    30     5.4   964.6    0.00 
 186   18:30   0.08   65.6    70    3.7    23     5.1   964.6    0.00 
 186   18:40   0.05   63.5    74    4.2    27     5.3   964.7    0.00 
 186   18:50   0.03   63.1    75    3.8    22     4.7   964.9    0.00 
 186   19:00   0.01   61.6    79    2.8    23     4.5   965.1    0.00 
 186   19:10   0.00   60.7    81    0.1    38     1.8   965.2    0.00 
 186   19:20   0.00   59.5    84    1.7   207     3.4   965.4    0.00 
 186   19:30   0.00   57.6    90    5.2   244     8.6   965.4    0.00 
 186   19:40   0.00   56.6    94    7.4   247     9.1   965.6    0.00 
 186   19:50   0.00   56.2    94    6.0   254     8.3   965.8    0.00 
 186   20:00   0.00   56.2    94    4.7   251     6.5   966.0    0.00 
 186   20:10   0.00   56.0    95    4.7   253     5.8   966.2    0.00 
 186   20:20   0.00   55.9    95    3.9   256     5.1   966.3    0.00 
 186   20:30   0.00   55.8    96    5.2   252     6.6   966.4    0.00 
 186   20:40   0.00   55.6    96    5.8   252     7.1   966.4    0.00 
 186   20:50   0.00   55.7    97    3.9   250     6.5   966.5    0.00 
 186   21:00   0.00   55.8    97    2.2   228     3.5   966.8    0.00 
 186   21:10   0.00   55.9    96    2.6   219     3.6   966.9    0.00 
 186   21:20   0.00   55.9    96    2.1   193     3.2   967.0    0.00 
 186   21:30   0.00   56.0    97    1.9   170     3.2   967.0    0.00 
 186   21:40   0.00   55.9    96    1.9   215     2.8   967.0    0.00 
 186   21:50   0.00   55.7    97    2.4   216     3.5   967.0    0.00 
 186   22:00   0.00   55.6    97    3.2   226     3.9   967.0    0.00 
 186   22:10   0.00   55.5    97    3.4   201     5.0   967.1    0.00 
 186   22:20   0.00   55.6    97    4.2   196     5.8   967.1    0.00 
 186   22:30   0.00   55.6    98    5.2   201     7.2   967.1    0.00 
 186   22:40   0.00   55.3    98    4.7   214     7.5   967.1    0.00 
 186   22:50   0.00   55.2    99    5.0   221     7.0   967.0    0.00 
 186   23:00   0.00   55.1    99    5.7   234     7.5   967.0    0.00 
 186   23:10   0.00   55.1    99    5.8   234     9.1   967.1    0.00 
 186   23:20   0.00   55.1   100    7.2   233     9.9   967.0    0.00 
 186   23:30   0.00   55.1   100    6.5   231     9.3   967.0    0.00 
 186   23:40   0.00   55.0   100    5.0   226     7.5   967.1    0.00 
 186   23:50   0.00   54.9   100    4.1   235     6.1   967.1    0.00 
 187    0:00   0.00   54.8   100    4.5   228     6.4   967.2    0.00 
 187    0:10   0.00   54.7   100    6.8   220     9.9   967.1    0.00 
 187    0:20   0.00   54.9   100    7.8   205    10.2   967.1    0.00 
 187    0:30   0.00   55.2   100    7.4   196    10.3   967.1    0.00 
 187    0:40   0.00   55.1   100    8.1   197    10.0   967.0    0.00 
 187    0:50   0.00   55.0   100    8.6   206    10.9   967.0    0.00 
 187    1:00   0.00   55.0   100    6.1   192     8.8   967.1    0.00 
 187    1:10   0.00   55.0   100    5.3   193     7.7   967.1    0.00 
 187    1:20   0.00   54.9   100    3.1   195     5.0   967.1    0.00 
 187    1:30   0.00   55.0   100    1.6   168     3.7   967.1    0.00 
 187    1:40   0.00   55.1   100    1.1   118     3.6   967.0    0.00 
 187    1:50   0.00   55.2   100    2.2    83     3.7   967.0    0.00 
 187    2:00   0.00   55.3   100    3.3    52     6.1   967.0    0.00 
 187    2:10   0.00   55.5   100    3.4    50     6.5   967.0    0.00 
 187    2:20   0.00   55.7   100    4.6    48     7.0   966.9    0.00 
 187    2:30   0.00   55.9   100    4.5    41     7.7   966.8    0.00 
 187    2:40   0.00   55.9   100    3.9    44     6.5   966.8    0.00 
 187    2:50   0.00   55.8   100    2.0    51     5.5   966.8    0.00 
 187    3:00   0.00   55.6   100    1.5    36     3.5   966.8    0.00 
 187    3:10   0.00   55.7   100    1.0    53     2.9   966.9    0.00 
 187    3:20   0.00   55.6   100    1.3    65     3.9   967.0    0.00 
 187    3:30   0.00   55.6   100    1.6    72     3.4   967.1    0.00 
 187    3:40   0.00   55.5   100    0.5   220     2.3   967.1    0.00 
 187    3:50   0.00   55.1   100    2.3   240     3.4   967.2    0.00 
 187    4:00   0.00   55.0   100    2.5   241     3.8   967.3    0.00 
 187    4:10   0.00   55.0   100    2.0   268     3.6   967.2    0.00 
 187    4:20   0.00   55.1   100    0.7   141     2.7   967.2    0.00 
 187    4:30   0.00   55.4   100    0.2    81     1.5   967.3    0.00 
 187    4:40   0.00   55.5   100    0.5   300     1.4   967.3    0.00 
 187    4:50   0.00   55.2   100    1.2   260     2.1   967.3    0.00 
 187    5:00   0.00   55.3   100    0.5   291     1.3   967.4    0.00 
 187    5:10   0.00   55.3   100    1.3    61     4.0   967.6    0.00 
 187    5:20   0.00   55.4   100    2.9    26     4.8   967.5    0.00 
 187    5:30   0.00   55.1   100    3.5     4     5.3   967.6    0.00 
 187    5:40   0.01   55.1   100    4.2    24     6.0   967.7    0.00 
 187    5:50   0.02   55.3   100    3.9    37     5.6   967.9    0.00 
 187    6:00   0.03   55.7   100    3.0    46     4.6   967.8    0.00 
 187    6:10   0.04   56.0   100    1.4    74     2.8   967.9    0.00 
 187    6:20   0.04   56.0   100    1.1    29     3.4   967.8    0.00 
 187    6:30   0.06   56.4   100    1.6    90     3.7   967.8    0.00 
 187    6:40   0.08   56.4   100    1.3   162     3.0   967.8    0.00 
 187    6:50   0.09   56.2   100    4.2   204     8.1   967.9    0.00 
 187    7:00   0.11   56.1   100    5.7   209     8.3   967.9    0.00 
 187    7:10   0.12   56.2   100    5.7   196    10.1   967.9    0.00 
 187    7:20   0.12   56.4   100    4.9   210     9.1   968.0    0.00 
 187    7:30   0.12   56.5   100    5.3   222     8.5   968.1    0.00 
 187    7:40   0.14   56.4   100    5.2   235     7.3   968.1    0.00 
 187    7:50   0.17   56.2   100    5.5   246     7.6   968.1    0.00 
 187    8:00   0.20   56.2   100    4.1   234     7.1   968.1    0.00 
 187    8:10   0.18   56.6   100    1.8   252     5.3   968.2    0.00 
 187    8:20   0.23   57.3   100    1.4   352     4.1   968.4    0.00 
 187    8:30   0.22   57.5   100    1.6   347     4.7   968.4    0.00 
 187    8:40   0.25   58.4   100    1.8    55     5.0   968.4    0.00 
 187    8:50   0.27   59.2    99    1.3    32     4.5   968.4    0.00 
 187    9:00   0.33   58.9    98    3.8    14     7.1   968.3    0.01 
 187    9:10   0.31   59.7    96    4.6    51     9.5   968.2    0.00 
 187    9:20   0.29   60.6    91    5.4    40    10.8   968.3    0.00 
 187    9:30   0.28   60.8    88    4.3    52     8.0   968.2    0.00 
 187    9:40   0.30   60.4    88    5.9    39     9.9   968.2    0.00 
 187    9:50   0.31   60.8    88    6.6    43    11.3   968.3    0.00 
 187   10:00   0.34   60.7    88    7.3    34    12.7   968.2    0.00 
 187   10:10   0.38   61.0    88    7.2    40    12.6   968.2    0.00 
 187   10:20   0.36   61.7    85    6.4    42    11.9   968.4    0.00 
 187   10:30   0.38   62.1    84    7.2    42    12.5   968.3    0.00 
 187   10:40   0.38   61.7    85    7.8    38    12.1   968.2    0.00 
 187   10:50   0.35   61.4    85    7.2    38    12.3   968.2    0.00 
 187   11:00   0.33   61.8    84    5.9    40    11.0   968.2    0.00 
 187   11:10   0.34   62.7    81    5.1    43     9.6   968.2    0.00 
 187   11:20   0.36   62.8    81    3.5    41     6.1   968.2    0.00 
 187   11:30   0.45   63.6    79    2.4    71     5.2   968.1    0.00 
 187   11:40   0.43   64.9    76    2.0    72     6.7   968.1    0.00 
 187   11:50   0.42   64.9    76    2.6    63     4.5   968.1    0.00 

Return to Valley Peak, Santa Cruz Island Reserve graphs page.


Western Regional Climate Center,wrcc@dri.edu